Logumkloster, Denmark

7:39 PM CEST on June 18, 2018 (GMT +0200)
Sønder gravlund | | Change Station

Elev 20 ft 55.06 °N, 9.06 °E | Updated 1 minute ago

Overcast
Overcast
61 °F
Feels Like 61 °F
N
7.6
Wind Variable Wind from SW
Gusts 9.2 mph

Today
High -- | Low -- °F
--% Chance of Precip.
Yesterday
High -- | Low -- °F
Precip. -- in
Pressure 29.98 in
Visibility 6.2 miles
Clouds Few 1200 ft
Mostly Cloudy 6200 ft
Dew Point 57 °F
Humidity 87%
Rainfall 0.00 in
Snow Depth Not available.
4:43 AM 10:06 PM
Waxing Crescent, 31% visible
METAR EKSP 181720Z 25011KT 210V270 9999 FEW012 BKN062 16/14 Q1015
Pressure 29.98 in
Visibility 6.2 miles
Clouds Few 1200 ft
Mostly Cloudy 6200 ft
Dew Point 57 °F
Humidity 87%
Rainfall 0.00 in
Snow Depth Not available.
4:43 AM 10:06 PM
Waxing Crescent, 31% visible
METAR EKSP 181720Z 25011KT 210V270 9999 FEW012 BKN062 16/14 Q1015

Get Severe Weather Alerts

Thanks for signing up!

Be on the lookout for a verification email in your inbox.

You'll start receiving the daily forecast at 6 AM.

×

10-Day Weather Forecast

×

Almanac

Astronomy

Jun. 18, 2018 Rise Set
Actual Time
Civil Twilight
Nautical Twilight
Astronomical Twilight
Moon
Length of Visible Light
Length of Day
Tomorrow will be .
, % of the Moon is Illuminated

Today's Extremes

Country Highs Country Lows

Community

WunderPhotos

Category 6

Welcome to Category 6. This is the collective home for Weather Underground's featured writeups by Dr. Jeff Masters (right), Bob Henson (left), Chris Burt, and other regular contributors.

Nearby

Air Quality

  Air Quality AQ Index Pollutant
Not available.

Snow Depth

Station Depth Elevation

Earthquake Activity

City Distance Mag. Time & Date
Minimum magnitude displayed is 2.5.

Coastal Water Temperatures

Place Temperature

Stations

Nearby Weather Stations

Station Location Temp. Windchill Dew Point Humidity Wind Precip. Elev Updated Type